Nouméa, Nouvelle-Calédonie

17:46 NCT le 24 juillet 2016 (GMT +1100)
Port Moselle | | Change Station

Alt. 33 ft 22.28 °S, 166.44 °E | Updated 11 minutes ago

Clear
Ciel dégagé
73.8 ° F
Paraît 74 ° F
N
5.0
Vent Variable Vent de ONO
Gusts 8.0 mph

Aujourd'hui
Haut(e) -- | Bas -- ° F
--% Risque de précip.
Hier
Haut(e) -- | Bas -- ° F
Precip. -- pouce
Pression 29.98 pouce
Visibilité -9999.0 Miles terrestres
Nuages
indice de chaleur 74 ° F
Point de rosée 67 ° F
Humidité 80%
Précipitations 0.00 pouce
Profondeur de la couche neigeuse Non disponible.
6:30 AM 5:30 PM
Lune gibbeuse décroissante, 79% visible
METAR NWWW 240630Z AUTO 13005KT CAVOK 23/18 Q1015 NOSIG
Pression 29.98 pouce
Visibilité -9999.0 Miles terrestres
Nuages
indice de chaleur 74 ° F
Point de rosée 67 ° F
Humidité 80%
Précipitations 0.00 pouce
Profondeur de la couche neigeuse Non disponible.
6:30 AM 5:30 PM
Lune gibbeuse décroissante, 79% visible
METAR NWWW 240630Z AUTO 13005KT CAVOK 23/18 Q1015 NOSIG

10-Day Weather Forecast

No radar image for this location.
×

Almanac

Astronomie

Jul. 24, 2016 Lever Coucher
Temps réel
Crépuscule civil
Crépuscule nautique
Crépuscule astronomique
Lune
Durée de lumière visible
Longueur du jour
Tomorrow will be .
, % of the Moon is Illuminated

Extrêmes aujourd'hui

Country Highs Country Lows

Community

WunderPhotos

Upload Photos

1,927,037 Photos téléchargées !

WunderBlog® & News

Nearby

Qualité de l'air

  Qualité de l'air Indice de la qualité de l'air Polluant
Not available.

Épaisseur de neige

Station Depth Altitude

Activité sismique

Ville Distance Mag. Time & Date
Minimum magnitude displayed is 2.5.

Températures des eaux côtières

Lieu Température

Stations

Stations météo à proximité

Emplacement de la station Température Refroidissement éolien Point de rosée Humidité Vent Precip. Alt. Mise à jour Type